METAR Data
IDs: Format: Raw Decoded Include TAF

Data at: 2152 UTC 01 Dec 2021

EGNH 011950Z 36011KT 9999 FEW036 04/M01 Q1008